Williamsport, Indiana
Current Conditions -  °F | °C
As of 12:35 PM on Monday 24 Nov 2014 (Local Time) from KDNV Reporting Station
Light Rain Light Rain  
Wind Chill: 22°   Ceiling: 1100
Heat Index: 35°   Visibility: 5mi
Dew Point: 32°   Wind: 26mph
Humidity: 90%   Direction: 240°WSW
Pressure: 29.49"   Gusts: 40mph
Location:  40.29°N, 87.29°W
Report Text: KDNV 241735Z AUTO 24023G35KT 5SM -RA OVC011 02/00 A2949 RMK AO2 T00150001
Loading
Personal Weather Stations






























Interactive Weather Map New forecast layout! Learn more

10-Day Weather Forecast

Advertisements
Track Severe Weather on mobile